createdAt,value
2018-06-21T00:00:37.642Z,99.90
2018-06-21T00:03:06.505Z,99.90
2018-06-21T00:05:35.197Z,99.90
2018-06-21T00:08:03.752Z,99.90
2018-06-21T00:10:32.245Z,99.90
2018-06-21T00:13:00.741Z,99.90
2018-06-21T00:15:29.283Z,99.90
2018-06-21T00:17:57.872Z,99.90
2018-06-21T00:20:26.489Z,99.90
2018-06-21T00:22:55.274Z,99.90
2018-06-21T00:25:23.877Z,99.90
2018-06-21T00:27:52.396Z,99.90
2018-06-21T00:30:20.836Z,99.90
2018-06-21T00:32:49.253Z,99.90
2018-06-21T00:35:17.767Z,99.90
2018-06-21T00:37:46.256Z,99.90
2018-06-21T00:40:14.845Z,99.90
2018-06-21T00:42:43.243Z,99.90
2018-06-21T00:45:11.677Z,99.90
2018-06-21T00:47:41.016Z,99.90
2018-06-21T00:50:09.430Z,99.90
2018-06-21T00:52:37.869Z,99.90
2018-06-21T00:55:06.349Z,99.90
2018-06-21T00:57:34.809Z,99.90
2018-06-21T01:00:04.216Z,99.90
2018-06-21T01:02:32.715Z,99.90
2018-06-21T01:05:01.128Z,99.90
2018-06-21T01:07:29.568Z,99.90
2018-06-21T01:09:58.024Z,99.90
2018-06-21T01:12:26.470Z,99.90
2018-06-21T01:14:55.140Z,99.90
2018-06-21T01:17:23.555Z,99.90
2018-06-21T01:19:52.026Z,99.90
2018-06-21T01:22:20.477Z,99.90
2018-06-21T01:24:49.005Z,99.90
2018-06-21T01:27:17.509Z,99.90
2018-06-21T01:29:45.957Z,99.90
2018-06-21T01:34:42.591Z,99.90
2018-06-21T01:37:11.131Z,99.90
2018-06-21T01:39:39.572Z,99.90
2018-06-21T01:42:08.133Z,99.90
2018-06-21T01:44:36.563Z,99.90
2018-06-21T01:47:05.080Z,99.90
2018-06-21T01:49:33.628Z,99.90
2018-06-21T01:52:02.169Z,99.90
2018-06-21T01:54:30.657Z,99.90
2018-06-21T01:56:59.093Z,99.90
2018-06-21T01:59:27.536Z,99.90
2018-06-21T02:04:24.230Z,99.90
2018-06-21T02:06:52.712Z,99.90
2018-06-21T02:09:21.252Z,99.90
2018-06-21T02:11:49.707Z,99.90
2018-06-21T02:14:18.263Z,99.90
2018-06-21T02:16:46.773Z,99.90
2018-06-21T02:19:15.320Z,99.90
2018-06-21T02:21:43.914Z,99.90
2018-06-21T02:24:12.392Z,99.90
2018-06-21T02:26:40.963Z,99.90
2018-06-21T02:29:09.485Z,99.90
2018-06-21T02:31:38.560Z,99.90
2018-06-21T02:34:07.869Z,99.90
2018-06-21T02:36:36.377Z,99.90
2018-06-21T02:39:07.005Z,99.90
2018-06-21T02:41:35.619Z,99.90
2018-06-21T02:44:04.142Z,99.90
2018-06-21T02:46:32.536Z,99.90
2018-06-21T02:49:01.177Z,99.90
2018-06-21T02:51:29.768Z,99.90
2018-06-21T02:53:58.279Z,99.90
2018-06-21T02:56:26.826Z,99.90
2018-06-21T02:58:55.397Z,99.90
2018-06-21T03:01:23.990Z,99.90
2018-06-21T03:03:52.600Z,99.90
2018-06-21T03:06:21.189Z,99.90
2018-06-21T03:08:49.758Z,99.90
2018-06-21T03:11:18.115Z,99.90
2018-06-21T03:13:46.597Z,99.90
2018-06-21T03:16:15.092Z,99.90
2018-06-21T03:18:43.529Z,99.90
2018-06-21T03:21:11.992Z,99.90
2018-06-21T03:23:40.441Z,99.90
2018-06-21T03:26:08.908Z,99.90
2018-06-21T03:28:37.397Z,99.90
2018-06-21T03:31:05.925Z,99.90
2018-06-21T03:33:34.416Z,99.90
2018-06-21T03:36:02.851Z,99.90
2018-06-21T03:38:31.295Z,99.90
2018-06-21T03:40:59.797Z,99.90
2018-06-21T03:43:28.339Z,99.90
2018-06-21T03:45:56.869Z,99.90
2018-06-21T03:48:25.361Z,99.90
2018-06-21T03:50:53.876Z,99.90
2018-06-21T03:53:22.385Z,99.90
2018-06-21T03:55:50.962Z,99.90
2018-06-21T03:58:19.428Z,99.90
2018-06-21T04:00:47.860Z,99.90
2018-06-21T04:03:16.291Z,99.90
2018-06-21T04:05:44.709Z,99.90
2018-06-21T04:08:13.139Z,99.90
2018-06-21T04:10:41.521Z,99.90
2018-06-21T04:13:09.986Z,99.90
2018-06-21T04:15:38.433Z,99.90
2018-06-21T04:18:06.978Z,99.90
2018-06-21T04:20:35.808Z,99.90
2018-06-21T04:23:04.229Z,99.90
2018-06-21T04:25:32.643Z,99.90
2018-06-21T04:28:01.082Z,99.90
2018-06-21T04:30:29.565Z,99.90
2018-06-21T04:32:58.053Z,99.90
2018-06-21T04:35:26.595Z,99.90
2018-06-21T04:37:55.135Z,99.90
2018-06-21T04:40:23.551Z,99.90
2018-06-21T04:42:52.070Z,99.90
2018-06-21T04:45:20.549Z,99.90
2018-06-21T04:47:49.025Z,99.90
2018-06-21T04:50:17.417Z,99.90
2018-06-21T04:52:45.841Z,99.90
2018-06-21T04:55:14.360Z,99.90
2018-06-21T04:57:42.712Z,99.90
2018-06-21T05:00:11.144Z,99.90
2018-06-21T05:02:39.413Z,99.90
2018-06-21T05:05:07.791Z,99.90
2018-06-21T05:07:36.253Z,99.90
2018-06-21T05:10:04.719Z,99.90
2018-06-21T05:12:33.112Z,99.90
2018-06-21T05:15:01.563Z,99.90
2018-06-21T05:17:29.956Z,99.90
2018-06-21T05:19:58.369Z,99.90
2018-06-21T05:22:26.893Z,99.90
2018-06-21T05:24:55.286Z,99.90
2018-06-21T05:27:23.818Z,99.90
2018-06-21T05:29:52.226Z,99.90
2018-06-21T05:34:48.705Z,99.90
2018-06-21T05:37:17.082Z,99.90
2018-06-21T05:39:45.507Z,99.90
2018-06-21T05:42:13.880Z,99.90
2018-06-21T05:44:48.083Z,99.90
2018-06-21T05:50:00.613Z,99.90
2018-06-21T05:52:28.992Z,99.90
2018-06-21T05:54:57.382Z,99.90
2018-06-21T05:57:25.841Z,99.90
2018-06-21T05:59:54.286Z,99.90
2018-06-21T06:02:22.649Z,99.90
2018-06-21T06:04:51.048Z,99.90
2018-06-21T06:07:19.432Z,99.90
2018-06-21T06:09:47.824Z,99.90
2018-06-21T06:12:16.159Z,99.90
2018-06-21T06:17:12.649Z,99.90
2018-06-21T06:19:41.086Z,99.90
2018-06-21T06:22:09.466Z,99.90
2018-06-21T06:24:37.805Z,99.90
2018-06-21T06:27:06.156Z,99.90
2018-06-21T06:29:34.554Z,99.90
2018-06-21T06:32:02.936Z,99.90
2018-06-21T06:34:31.328Z,99.90
2018-06-21T06:36:59.691Z,99.90
2018-06-21T06:39:28.198Z,99.90
2018-06-21T06:41:56.692Z,99.90
2018-06-21T06:44:25.123Z,99.90
2018-06-21T06:46:53.478Z,99.90
2018-06-21T06:49:21.815Z,99.90
2018-06-21T06:51:50.207Z,99.90
2018-06-21T06:54:18.721Z,99.90
2018-06-21T06:56:47.097Z,99.90
2018-06-21T06:59:15.502Z,99.90
2018-06-21T07:01:43.969Z,99.90
2018-06-21T07:04:12.409Z,99.90
2018-06-21T07:06:40.793Z,99.90
2018-06-21T07:09:09.663Z,99.90
2018-06-21T07:11:38.111Z,99.90
2018-06-21T07:14:06.713Z,99.90
2018-06-21T07:16:35.249Z,99.90
2018-06-21T07:19:03.824Z,99.90
2018-06-21T07:21:32.314Z,99.90
2018-06-21T07:24:00.677Z,99.90
2018-06-21T07:26:29.121Z,99.90
2018-06-21T07:28:57.507Z,99.90
2018-06-21T07:31:25.938Z,99.90
2018-06-21T07:33:54.346Z,99.90
2018-06-21T07:36:22.728Z,99.90
2018-06-21T07:38:51.099Z,99.90
2018-06-21T07:41:19.483Z,99.90
2018-06-21T07:43:47.880Z,99.90
2018-06-21T07:46:16.396Z,99.90
2018-06-21T07:48:44.837Z,99.90
2018-06-21T07:51:13.237Z,99.90
2018-06-21T07:53:41.776Z,99.90
2018-06-21T07:56:10.217Z,99.90
2018-06-21T07:58:38.592Z,99.90
2018-06-21T08:01:07.046Z,99.90
2018-06-21T08:03:35.416Z,99.90
2018-06-21T08:06:03.948Z,99.90
2018-06-21T08:08:32.399Z,99.90
2018-06-21T08:11:00.774Z,99.90
2018-06-21T08:13:29.206Z,99.90
2018-06-21T08:15:57.645Z,99.90
2018-06-21T08:18:26.080Z,99.90
2018-06-21T08:20:54.493Z,99.90
2018-06-21T08:23:23.048Z,99.90
2018-06-21T08:25:51.400Z,99.90
2018-06-21T08:28:19.808Z,99.90
2018-06-21T08:30:48.233Z,99.90
2018-06-21T08:33:16.633Z,99.90
2018-06-21T08:35:45.057Z,99.90
2018-06-21T08:38:13.465Z,99.90
2018-06-21T08:40:41.897Z,99.90
2018-06-21T08:43:10.387Z,99.90
2018-06-21T08:45:38.778Z,99.90
2018-06-21T08:48:07.227Z,99.90
2018-06-21T08:50:35.617Z,99.90
2018-06-21T08:53:04.060Z,99.90
2018-06-21T08:55:32.493Z,99.90
2018-06-21T08:58:00.874Z,99.90
2018-06-21T09:00:29.325Z,99.20
2018-06-21T09:02:57.725Z,99.70
2018-06-21T09:05:26.130Z,98.60
2018-06-21T09:07:54.520Z,99.90
2018-06-21T09:10:22.973Z,98.40
2018-06-21T09:12:51.488Z,97.50
2018-06-21T09:15:19.921Z,97.70
2018-06-21T09:17:48.277Z,97.70
2018-06-21T09:20:16.677Z,99.00
2018-06-21T09:22:45.041Z,98.50
2018-06-21T09:25:13.441Z,98.80
2018-06-21T09:27:41.833Z,99.30
2018-06-21T09:30:10.195Z,98.20
2018-06-21T09:32:38.573Z,98.70
2018-06-21T09:35:07.058Z,98.20
2018-06-21T09:37:41.507Z,97.10
2018-06-21T09:40:15.261Z,96.90
2018-06-21T09:45:22.748Z,96.90
2018-06-21T09:47:56.626Z,98.80
2018-06-21T09:50:24.961Z,97.80
2018-06-21T09:52:53.437Z,97.70
2018-06-21T09:55:21.791Z,96.40
2018-06-21T10:00:23.725Z,97.20
2018-06-21T10:02:52.126Z,96.80
2018-06-21T10:05:20.524Z,96.80
2018-06-21T10:07:48.903Z,95.40
2018-06-21T10:10:17.306Z,95.20
2018-06-21T10:12:46.016Z,93.70
2018-06-21T10:15:15.866Z,95.80
2018-06-21T10:17:44.285Z,96.20
2018-06-21T10:20:12.624Z,94.50
2018-06-21T10:22:41.088Z,96.40
2018-06-21T10:25:09.478Z,93.50
2018-06-21T10:27:37.945Z,92.60
2018-06-21T10:30:06.520Z,92.50
2018-06-21T10:32:35.033Z,91.80
2018-06-21T10:35:03.518Z,91.30
2018-06-21T10:37:31.905Z,90.90
2018-06-21T10:40:00.326Z,91.00
2018-06-21T10:42:28.751Z,91.60
2018-06-21T10:44:57.216Z,92.50
2018-06-21T10:47:25.615Z,90.40
2018-06-21T10:49:54.083Z,90.20
2018-06-21T10:52:22.523Z,87.50
2018-06-21T10:54:50.950Z,90.20
2018-06-21T10:57:19.396Z,88.70
2018-06-21T10:59:47.855Z,90.70
2018-06-21T11:02:16.219Z,90.20
2018-06-21T11:04:44.633Z,90.00
2018-06-21T11:07:12.991Z,91.30
2018-06-21T11:09:41.497Z,90.10
2018-06-21T11:12:10.049Z,90.10
2018-06-21T11:14:38.459Z,89.60
2018-06-21T11:17:06.945Z,88.20
2018-06-21T11:19:35.318Z,86.10
2018-06-21T11:22:03.872Z,89.10
2018-06-21T11:24:32.384Z,87.70
2018-06-21T11:27:00.920Z,87.50
2018-06-21T11:29:29.361Z,88.40
2018-06-21T11:31:57.822Z,88.10
2018-06-21T11:34:26.211Z,83.30
2018-06-21T11:36:54.580Z,85.10
2018-06-21T11:39:22.945Z,81.30
2018-06-21T11:41:51.340Z,81.40
2018-06-21T11:44:19.902Z,82.00
2018-06-21T11:46:48.390Z,81.90
2018-06-21T11:49:16.695Z,85.30
2018-06-21T11:51:45.067Z,84.60
2018-06-21T11:54:13.486Z,81.50
2018-06-21T11:56:41.997Z,82.30
2018-06-21T11:59:10.471Z,84.50
2018-06-21T12:01:38.885Z,86.00
2018-06-21T12:04:07.307Z,84.90
2018-06-21T12:06:35.751Z,85.00
2018-06-21T12:09:06.016Z,84.00
2018-06-21T12:11:34.473Z,86.70
2018-06-21T12:14:02.886Z,88.70
2018-06-21T12:16:31.293Z,88.90
2018-06-21T12:18:59.837Z,90.10
2018-06-21T12:21:28.267Z,89.30
2018-06-21T12:23:56.674Z,90.10
2018-06-21T12:26:25.171Z,90.70
2018-06-21T12:28:53.516Z,90.40
2018-06-21T12:31:21.920Z,90.00
2018-06-21T12:33:50.316Z,89.40
2018-06-21T12:36:18.889Z,89.70
2018-06-21T12:38:47.307Z,91.20
2018-06-21T12:43:43.977Z,91.50
2018-06-21T12:46:12.908Z,91.10
2018-06-21T12:51:09.904Z,90.30
2018-06-21T12:53:38.270Z,90.90
2018-06-21T12:56:06.636Z,90.80
2018-06-21T12:58:35.449Z,91.50
2018-06-21T13:01:04.546Z,90.90
2018-06-21T13:03:32.961Z,91.80
2018-06-21T13:06:01.385Z,92.00
2018-06-21T13:08:40.972Z,92.00
2018-06-21T13:11:24.720Z,92.80
2018-06-21T13:14:28.589Z,93.20
2018-06-21T13:16:57.017Z,92.40
2018-06-21T13:19:25.456Z,92.40
2018-06-21T13:21:53.861Z,93.10
2018-06-21T13:24:22.264Z,93.70
2018-06-21T13:26:50.686Z,94.50
2018-06-21T13:29:19.236Z,95.70
2018-06-21T13:31:47.698Z,96.00
2018-06-21T13:34:16.193Z,96.70
2018-06-21T13:36:44.681Z,97.80
2018-06-21T13:39:13.078Z,97.00
2018-06-21T13:41:41.504Z,97.00
2018-06-21T13:46:38.084Z,97.00
2018-06-21T13:49:06.553Z,96.70
2018-06-21T13:51:35.069Z,97.40
2018-06-21T13:54:03.504Z,98.10
2018-06-21T13:56:32.046Z,97.50
2018-06-21T13:59:00.595Z,97.90
2018-06-21T14:01:29.053Z,97.00
2018-06-21T14:03:57.480Z,97.00
2018-06-21T14:06:25.944Z,96.70
2018-06-21T14:08:54.388Z,96.90
2018-06-21T14:11:22.856Z,97.30
2018-06-21T14:13:51.240Z,97.40
2018-06-21T14:16:19.605Z,97.80
2018-06-21T14:18:48.126Z,98.00
2018-06-21T14:21:16.604Z,98.80
2018-06-21T14:23:44.986Z,99.10
2018-06-21T14:26:13.432Z,98.00
2018-06-21T14:28:41.878Z,97.20
2018-06-21T14:31:10.351Z,97.10
2018-06-21T14:33:38.799Z,97.10
2018-06-21T14:36:07.252Z,97.70
2018-06-21T14:38:35.861Z,97.90
2018-06-21T14:41:04.320Z,97.20
2018-06-21T14:43:32.685Z,96.30
2018-06-21T14:46:01.193Z,95.00
2018-06-21T14:48:29.573Z,94.00
2018-06-21T14:50:58.036Z,92.90
2018-06-21T14:53:26.452Z,94.30
2018-06-21T14:55:54.938Z,94.10
2018-06-21T14:58:23.504Z,93.50
2018-06-21T15:00:51.863Z,93.90
2018-06-21T15:03:20.436Z,93.00
2018-06-21T15:05:49.332Z,92.70
2018-06-21T15:08:17.790Z,93.10
2018-06-21T15:10:46.219Z,92.50
2018-06-21T15:13:15.311Z,90.70
2018-06-21T15:15:43.891Z,87.60
2018-06-21T15:18:12.468Z,86.30
2018-06-21T15:20:40.884Z,83.70
2018-06-21T15:23:09.463Z,83.20
2018-06-21T15:25:37.809Z,80.80
2018-06-21T15:28:06.255Z,79.40
2018-06-21T15:30:34.742Z,78.50
2018-06-21T15:33:03.220Z,75.20
2018-06-21T15:35:31.774Z,72.10
2018-06-21T15:38:00.138Z,71.20
2018-06-21T15:40:28.671Z,71.70
2018-06-21T15:42:57.143Z,72.80
2018-06-21T15:45:25.609Z,75.10
2018-06-21T15:47:54.023Z,76.60
2018-06-21T15:50:22.509Z,76.80
2018-06-21T15:52:50.968Z,78.40
2018-06-21T15:55:19.476Z,78.80
2018-06-21T15:57:47.975Z,80.50
2018-06-21T16:00:16.428Z,82.80
2018-06-21T16:02:44.895Z,83.10
2018-06-21T16:05:13.335Z,83.80
2018-06-21T16:07:41.706Z,81.50
2018-06-21T16:10:10.154Z,79.40
2018-06-21T16:15:06.930Z,78.30
2018-06-21T16:17:35.424Z,75.00
2018-06-21T16:20:03.864Z,74.40
2018-06-21T16:22:32.262Z,75.50
2018-06-21T16:25:00.656Z,77.80
2018-06-21T16:27:29.093Z,76.90
2018-06-21T16:29:57.615Z,74.90
2018-06-21T16:32:26.026Z,73.80
2018-06-21T16:34:54.517Z,72.10
2018-06-21T16:37:22.969Z,71.10
2018-06-21T16:39:51.424Z,72.00
2018-06-21T16:42:19.904Z,70.40
2018-06-21T16:44:48.334Z,68.70
2018-06-21T16:47:16.715Z,71.20
2018-06-21T16:49:45.273Z,70.00
2018-06-21T16:52:13.697Z,69.50
2018-06-21T16:54:42.162Z,66.30
2018-06-21T16:57:11.259Z,65.60
2018-06-21T16:59:39.810Z,65.10
2018-06-21T17:02:08.790Z,63.80
2018-06-21T17:07:06.090Z,64.30
2018-06-21T17:09:34.662Z,64.70
2018-06-21T17:12:03.173Z,65.30
2018-06-21T17:14:31.597Z,65.10
2018-06-21T17:17:00.146Z,63.60
2018-06-21T17:19:28.649Z,62.70
2018-06-21T17:21:57.287Z,62.80
2018-06-21T17:24:26.130Z,62.60
2018-06-21T17:26:54.588Z,63.10
2018-06-21T17:29:23.241Z,63.20
2018-06-21T17:31:58.119Z,64.40
2018-06-21T17:34:26.595Z,63.20
2018-06-21T17:36:55.244Z,63.40
2018-06-21T17:39:23.853Z,63.40
2018-06-21T17:41:52.565Z,62.80
2018-06-21T17:44:21.456Z,63.60
2018-06-21T17:46:50.246Z,63.70
2018-06-21T17:49:19.922Z,63.80
2018-06-21T17:51:50.409Z,63.10
2018-06-21T17:54:20.835Z,61.30
2018-06-21T17:56:50.210Z,60.70
2018-06-21T18:01:50.464Z,59.90
2018-06-21T18:04:20.501Z,59.70
2018-06-21T18:06:50.260Z,60.00
2018-06-21T18:09:19.765Z,59.50
2018-06-21T18:11:49.221Z,58.80
2018-06-21T18:14:18.834Z,58.90
2018-06-21T18:16:47.593Z,59.50
2018-06-21T18:19:16.417Z,59.40
2018-06-21T18:21:45.111Z,58.70
2018-06-21T18:24:13.914Z,59.40
2018-06-21T18:31:46.107Z,58.70
2018-06-21T18:34:15.347Z,58.70
2018-06-21T18:39:13.985Z,59.40
2018-06-21T18:41:42.948Z,59.90
2018-06-21T18:44:12.059Z,58.60
2018-06-21T18:46:42.236Z,58.90
2018-06-21T18:49:12.127Z,58.90
2018-06-21T18:54:13.599Z,59.70
2018-06-21T18:56:44.524Z,59.70
2018-06-21T18:59:14.873Z,60.10
2018-06-21T19:01:43.859Z,60.50
2018-06-21T19:04:12.911Z,59.70
2018-06-21T19:09:41.612Z,60.10
2018-06-21T19:12:11.179Z,60.70
2018-06-21T19:14:40.485Z,60.90
2018-06-21T19:17:09.677Z,61.80
2018-06-21T19:19:39.016Z,62.30
2018-06-21T19:22:07.962Z,61.40
2018-06-21T19:24:36.796Z,62.20
2018-06-21T19:27:05.817Z,63.50
2018-06-21T19:29:34.733Z,61.70
2018-06-21T19:32:03.758Z,61.80
2018-06-21T19:34:32.922Z,61.80
2018-06-21T19:37:02.127Z,61.70
2018-06-21T19:39:30.792Z,61.90
2018-06-21T19:41:59.784Z,61.50
2018-06-21T19:44:28.810Z,61.50
2018-06-21T19:46:57.852Z,61.50
2018-06-21T19:49:26.954Z,61.60
2018-06-21T19:51:55.872Z,61.80
2018-06-21T19:54:24.900Z,62.20
2018-06-21T19:56:53.845Z,61.80
2018-06-21T19:59:22.819Z,61.90
2018-06-21T20:01:51.641Z,62.40
2018-06-21T20:04:20.420Z,63.00
2018-06-21T20:06:49.929Z,63.20
2018-06-21T20:09:18.802Z,63.70
2018-06-21T20:11:47.393Z,63.50
2018-06-21T20:14:16.333Z,63.70
2018-06-21T20:16:45.044Z,64.30
2018-06-21T20:19:15.881Z,63.40
2018-06-21T20:21:44.995Z,64.20
2018-06-21T20:24:14.002Z,64.70
2018-06-21T20:26:42.562Z,65.10
2018-06-21T20:29:16.635Z,65.20
2018-06-21T20:31:45.552Z,65.40
2018-06-21T20:34:14.350Z,65.90
2018-06-21T20:36:43.178Z,64.60
2018-06-21T20:39:12.741Z,65.20
2018-06-21T20:41:41.406Z,65.80
2018-06-21T20:44:10.343Z,64.60
2018-06-21T20:46:38.977Z,65.40
2018-06-21T20:49:08.073Z,64.30
2018-06-21T20:51:36.751Z,65.30
2018-06-21T20:54:05.779Z,64.60
2018-06-21T20:56:34.760Z,64.90
2018-06-21T20:59:03.761Z,65.20
2018-06-21T21:01:32.719Z,65.50
2018-06-21T21:04:01.395Z,65.20
2018-06-21T21:06:30.268Z,65.60
2018-06-21T21:08:58.988Z,66.20
2018-06-21T21:11:27.680Z,65.90
2018-06-21T21:13:56.301Z,66.50
2018-06-21T21:16:24.967Z,67.00
2018-06-21T21:18:53.691Z,67.70
2018-06-21T21:21:22.317Z,67.30
2018-06-21T21:23:51.127Z,67.90
2018-06-21T21:26:20.035Z,68.40
2018-06-21T21:28:48.668Z,68.50
2018-06-21T21:31:17.205Z,69.10
2018-06-21T21:33:45.957Z,68.60
2018-06-21T21:36:14.618Z,68.80
2018-06-21T21:38:43.372Z,69.60
2018-06-21T21:41:12.107Z,69.40
2018-06-21T21:43:41.204Z,69.60
2018-06-21T21:46:09.883Z,69.80
2018-06-21T21:48:38.688Z,69.70
2018-06-21T21:51:07.574Z,69.40
2018-06-21T21:53:36.145Z,70.00
2018-06-21T21:56:06.593Z,69.20
2018-06-21T21:58:35.478Z,69.40
2018-06-21T22:01:04.389Z,69.40
2018-06-21T22:03:33.225Z,69.80
2018-06-21T22:06:01.729Z,70.00
2018-06-21T22:08:30.458Z,70.10
2018-06-21T22:10:58.921Z,70.00
2018-06-21T22:13:27.382Z,70.00
2018-06-21T22:15:56.055Z,70.40
2018-06-21T22:18:24.794Z,70.70
2018-06-21T22:20:53.289Z,71.00
2018-06-21T22:23:21.957Z,71.40
2018-06-21T22:25:50.650Z,70.90
2018-06-21T22:28:19.148Z,71.60
2018-06-21T22:30:47.797Z,73.10
2018-06-21T22:33:16.215Z,72.50
2018-06-21T22:35:44.764Z,72.30
2018-06-21T22:38:13.301Z,73.20
2018-06-21T22:40:41.733Z,73.40
2018-06-21T22:43:10.309Z,74.10
2018-06-21T22:45:38.744Z,74.60
2018-06-21T22:48:07.308Z,74.50
2018-06-21T22:50:35.817Z,74.30
2018-06-21T22:53:04.225Z,74.80
2018-06-21T22:55:32.707Z,74.70
2018-06-21T22:58:01.207Z,75.00
2018-06-21T23:00:29.675Z,75.10
2018-06-21T23:02:58.169Z,75.50
2018-06-21T23:05:26.641Z,75.40
2018-06-21T23:07:55.225Z,76.10
2018-06-21T23:10:23.681Z,77.10
2018-06-21T23:12:52.169Z,76.80
2018-06-21T23:15:21.599Z,76.80
2018-06-21T23:17:50.059Z,76.90
2018-06-21T23:20:18.529Z,77.10
2018-06-21T23:22:47.012Z,77.60
2018-06-21T23:25:15.689Z,78.20
2018-06-21T23:27:44.222Z,77.90
2018-06-21T23:30:12.660Z,78.90
2018-06-21T23:32:41.253Z,79.80
2018-06-21T23:35:09.929Z,79.20
2018-06-21T23:37:38.420Z,79.10
2018-06-21T23:40:06.964Z,79.20
2018-06-21T23:42:35.482Z,79.40
2018-06-21T23:45:04.130Z,79.30
2018-06-21T23:47:32.642Z,80.10
2018-06-21T23:50:01.145Z,80.20
2018-06-21T23:52:29.826Z,80.50
2018-06-21T23:54:58.286Z,81.10
2018-06-21T23:57:26.937Z,81.50
2018-06-21T23:59:55.329Z,80.70
